createdAt,value
2022-08-23T00:03:18.851Z,100342.25
2022-08-23T00:07:22.092Z,100335.53
2022-08-23T00:11:46.056Z,100330.50
2022-08-23T00:15:48.405Z,100324.06
2022-08-23T00:19:50.554Z,100325.41
2022-08-23T00:23:52.947Z,100338.72
2022-08-23T00:27:58.631Z,100308.84
2022-08-23T00:32:02.312Z,100324.78
2022-08-23T00:36:05.070Z,100323.09
2022-08-23T00:40:10.309Z,100323.09
2022-08-23T00:44:45.949Z,100332.47
2022-08-23T00:48:50.121Z,100342.97
2022-08-23T00:53:08.782Z,100343.09
2022-08-23T00:57:15.970Z,100348.22
2022-08-23T01:01:18.777Z,100375.78
2022-08-23T01:05:25.144Z,100411.22
2022-08-23T01:09:27.582Z,100391.03
2022-08-23T01:13:40.184Z,100409.25
2022-08-23T01:17:54.179Z,100436.03
2022-08-23T01:22:16.254Z,100438.47
2022-08-23T01:26:22.094Z,100449.00
2022-08-23T01:30:29.657Z,100442.13
2022-08-23T01:34:35.191Z,100431.94
2022-08-23T01:38:39.219Z,100424.91
2022-08-23T01:42:41.861Z,100412.84
2022-08-23T01:46:47.744Z,100429.13
2022-08-23T01:50:49.873Z,100442.38
2022-08-23T01:54:52.177Z,100453.56
2022-08-23T01:58:54.361Z,100466.13
2022-08-23T02:02:59.510Z,100464.59
2022-08-23T02:07:01.854Z,100466.13
2022-08-23T02:11:10.254Z,100465.03
2022-08-23T02:15:16.485Z,100438.34
2022-08-23T02:19:22.982Z,100425.41
2022-08-23T02:23:25.270Z,100434.06
2022-08-23T02:27:27.730Z,100424.63
2022-08-23T02:31:31.401Z,100431.78
2022-08-23T02:35:33.829Z,100424.03
2022-08-23T02:39:36.215Z,100416.94
2022-08-23T02:43:41.268Z,100409.81
2022-08-23T02:47:45.877Z,100405.81
2022-08-23T02:51:57.628Z,100405.31
2022-08-23T02:56:01.024Z,100403.09
2022-08-23T03:00:05.860Z,100391.19
2022-08-23T03:04:10.352Z,100385.66
2022-08-23T03:08:13.505Z,100385.72
2022-08-23T03:12:21.704Z,100383.88
2022-08-23T03:16:29.470Z,100376.78
2022-08-23T03:20:32.281Z,100381.22
2022-08-23T03:24:36.536Z,100381.69
2022-08-23T03:28:40.725Z,100369.53
2022-08-23T03:32:48.962Z,100378.28
2022-08-23T03:36:52.160Z,100373.94
2022-08-23T03:40:54.996Z,100371.50
2022-08-23T03:45:00.761Z,100362.28
2022-08-23T03:49:06.382Z,100369.81
2022-08-23T03:53:18.619Z,100367.34
2022-08-23T03:57:22.030Z,100358.47
2022-08-23T04:01:28.338Z,100359.41
2022-08-23T04:05:32.798Z,100358.41
2022-08-23T04:09:38.943Z,100354.53
2022-08-23T04:13:43.292Z,100357.94
2022-08-23T04:17:46.646Z,100367.69
2022-08-23T04:21:52.779Z,100374.38
2022-08-23T04:25:55.757Z,100377.19
2022-08-23T04:29:59.686Z,100387.56
2022-08-23T04:34:03.936Z,100387.25
2022-08-23T04:38:24.483Z,100392.88
2022-08-23T04:42:30.327Z,100408.69
2022-08-23T04:46:32.596Z,100414.31
2022-08-23T04:50:37.563Z,100408.63
2022-08-23T04:54:52.613Z,100402.72
2022-08-23T04:59:06.657Z,100405.97
2022-08-23T05:03:08.862Z,100411.47
2022-08-23T05:07:11.510Z,100413.22
2022-08-23T05:11:14.325Z,100421.44
2022-08-23T05:15:17.166Z,100427.75
2022-08-23T05:19:24.768Z,100432.72
2022-08-23T05:23:31.717Z,100441.25
2022-08-23T05:27:41.102Z,100434.28
2022-08-23T05:31:43.666Z,100441.47
2022-08-23T05:35:51.262Z,100416.56
2022-08-23T05:39:53.315Z,100423.16
2022-08-23T05:43:55.768Z,100421.22
2022-08-23T05:47:58.249Z,100438.53
2022-08-23T05:52:21.916Z,100435.56
2022-08-23T05:56:33.042Z,100440.19
2022-08-23T06:00:37.970Z,100448.69
2022-08-23T06:04:42.571Z,100452.44
2022-08-23T06:08:47.120Z,100461.13
2022-08-23T06:12:49.297Z,100470.50
2022-08-23T06:16:55.858Z,100470.03
2022-08-23T06:21:07.298Z,100471.75
2022-08-23T06:25:38.275Z,100470.13
2022-08-23T06:29:48.317Z,100469.41
2022-08-23T06:34:12.316Z,100462.84
2022-08-23T06:38:34.610Z,100465.44
2022-08-23T06:42:55.016Z,100472.31
2022-08-23T06:47:02.886Z,100466.50
2022-08-23T06:51:36.262Z,100460.22
2022-08-23T06:55:52.421Z,100457.91
2022-08-23T07:00:06.625Z,100462.94
2022-08-23T07:04:35.745Z,100450.16
2022-08-23T07:08:58.875Z,100455.19
2022-08-23T07:13:03.601Z,100449.53
2022-08-23T07:17:06.361Z,100435.13
2022-08-23T07:21:08.706Z,100445.00
2022-08-23T07:25:12.398Z,100439.00
2022-08-23T07:29:16.517Z,100432.97
2022-08-23T07:33:18.956Z,100445.00
2022-08-23T07:37:51.234Z,100432.97
2022-08-23T07:41:53.571Z,100427.38
2022-08-23T07:45:56.922Z,100424.88
2022-08-23T07:49:59.197Z,100433.81
2022-08-23T07:54:09.626Z,100443.78
2022-08-23T07:58:22.095Z,100448.25
2022-08-23T08:02:46.440Z,100436.59
2022-08-23T08:07:17.777Z,100416.69
2022-08-23T08:11:25.360Z,100426.25
2022-08-23T08:15:30.725Z,100416.16
2022-08-23T08:19:41.928Z,100430.69
2022-08-23T08:24:04.943Z,100416.59
2022-08-23T08:28:19.025Z,100423.66
2022-08-23T08:32:21.738Z,100437.81
2022-08-23T08:36:32.545Z,100438.69
2022-08-23T08:40:40.549Z,100427.78
2022-08-23T08:44:51.370Z,100426.31
2022-08-23T08:49:05.245Z,100419.53
2022-08-23T08:53:29.251Z,100424.34
2022-08-23T08:57:42.470Z,100415.91
2022-08-23T09:01:45.848Z,100405.13
2022-08-23T09:06:25.669Z,100406.34
2022-08-23T09:11:00.558Z,100405.75
2022-08-23T09:15:23.722Z,100405.03
2022-08-23T09:19:33.541Z,100401.94
2022-08-23T09:23:42.495Z,100393.88
2022-08-23T09:27:46.437Z,100387.28
2022-08-23T09:31:55.907Z,100377.97
2022-08-23T09:36:18.226Z,100364.63
2022-08-23T09:40:54.215Z,100355.34
2022-08-23T09:44:57.820Z,100340.44
2022-08-23T09:49:23.213Z,100347.69
2022-08-23T09:53:28.216Z,100342.94
2022-08-23T09:57:34.331Z,100358.50
2022-08-23T10:01:39.314Z,100358.09
2022-08-23T10:06:00.843Z,100382.31
2022-08-23T10:10:32.855Z,100403.91
2022-08-23T10:14:38.214Z,100410.84
2022-08-23T10:18:51.224Z,100412.94
2022-08-23T10:23:04.895Z,100431.31
2022-08-23T10:27:44.748Z,100439.56
2022-08-23T10:32:27.611Z,100432.53
2022-08-23T10:36:51.051Z,100466.59
2022-08-23T10:41:20.149Z,100456.59
2022-08-23T10:45:40.227Z,100474.22
2022-08-23T10:49:53.665Z,100469.69
2022-08-23T10:54:12.794Z,100471.94
2022-08-23T10:58:24.165Z,100485.13
2022-08-23T11:02:38.842Z,100487.03
2022-08-23T11:07:21.005Z,100495.41
2022-08-23T11:11:40.409Z,100490.63
2022-08-23T11:16:03.968Z,100487.75
2022-08-23T11:20:12.942Z,100490.84
2022-08-23T11:24:15.751Z,100488.09
2022-08-23T11:28:22.321Z,100499.28
2022-08-23T11:32:38.928Z,100496.16
2022-08-23T11:36:41.656Z,100499.97
2022-08-23T11:40:55.270Z,100495.56
2022-08-23T11:45:01.552Z,100496.28
2022-08-23T11:49:28.791Z,100489.38
2022-08-23T11:53:31.078Z,100488.88
2022-08-23T11:57:45.190Z,100491.78
2022-08-23T12:01:47.615Z,100498.06
2022-08-23T12:05:52.925Z,100497.03
2022-08-23T12:09:56.909Z,100500.03
2022-08-23T12:14:21.085Z,100494.50
2022-08-23T12:18:25.537Z,100493.59
2022-08-23T12:22:34.653Z,100496.25
2022-08-23T12:26:50.309Z,100494.28
2022-08-23T12:31:19.760Z,100503.75
2022-08-23T12:35:51.130Z,100496.63
2022-08-23T12:39:57.819Z,100496.69
2022-08-23T12:44:06.165Z,100492.75
2022-08-23T12:48:12.591Z,100485.66
2022-08-23T12:52:14.597Z,100475.19
2022-08-23T12:56:32.213Z,100473.09
2022-08-23T13:00:50.746Z,100470.03
2022-08-23T13:04:58.611Z,100468.22
2022-08-23T13:09:07.993Z,100465.13
2022-08-23T13:13:19.407Z,100464.38
2022-08-23T13:17:27.417Z,100466.94
2022-08-23T13:21:32.326Z,100456.38
2022-08-23T13:25:43.435Z,100455.88
2022-08-23T13:30:00.462Z,100444.47
2022-08-23T13:34:02.503Z,100433.94
2022-08-23T13:38:10.631Z,100426.63
2022-08-23T13:42:12.797Z,100427.63
2022-08-23T13:46:22.884Z,100440.44
2022-08-23T13:50:29.996Z,100440.84
2022-08-23T13:54:33.885Z,100458.47
2022-08-23T13:58:36.323Z,100466.09
2022-08-23T14:02:39.376Z,100458.31
2022-08-23T14:06:41.494Z,100460.59
2022-08-23T14:10:44.403Z,100453.28
2022-08-23T14:14:46.687Z,100463.00
2022-08-23T14:23:12.076Z,100456.75
2022-08-23T14:27:14.746Z,100469.44
2022-08-23T14:31:17.426Z,100469.41
2022-08-23T14:35:19.773Z,100466.41
2022-08-23T14:39:22.750Z,100473.34
2022-08-23T14:43:26.959Z,100476.97
2022-08-23T14:47:29.485Z,100484.69
2022-08-23T14:51:38.116Z,100485.50
2022-08-23T14:55:46.334Z,100494.16
2022-08-23T14:59:48.634Z,100490.59
2022-08-23T15:03:51.679Z,100492.25
2022-08-23T15:07:54.314Z,100495.75
2022-08-23T15:16:21.750Z,100501.53
2022-08-23T15:20:29.475Z,100494.81
2022-08-23T15:24:33.323Z,100504.09
2022-08-23T15:28:36.187Z,100500.72
2022-08-23T15:32:38.514Z,100504.41
2022-08-23T15:36:43.525Z,100498.31
2022-08-23T15:40:46.503Z,100489.56
2022-08-23T15:44:49.404Z,100486.31
2022-08-23T15:48:56.270Z,100467.38
2022-08-23T15:52:59.280Z,100449.41
2022-08-23T15:57:01.842Z,100449.09
2022-08-23T16:01:04.427Z,100465.22
2022-08-23T16:05:09.670Z,100451.16
2022-08-23T16:09:19.849Z,100446.00
2022-08-23T16:13:23.083Z,100439.03
2022-08-23T16:17:25.731Z,100475.13
2022-08-23T16:21:29.906Z,100450.78
2022-08-23T16:25:32.112Z,100402.28
2022-08-23T16:29:36.336Z,100402.13
2022-08-23T16:33:39.051Z,100442.00
2022-08-23T16:37:41.392Z,100409.88
2022-08-23T16:41:43.406Z,100401.78
2022-08-23T16:45:46.120Z,100475.38
2022-08-23T16:49:48.404Z,100469.81
2022-08-23T16:54:01.840Z,100481.75
2022-08-23T16:58:07.950Z,100484.34
2022-08-23T17:02:26.591Z,100496.31
2022-08-23T17:06:28.970Z,100477.94
2022-08-23T17:10:31.265Z,100455.81
2022-08-23T17:14:33.619Z,100509.34
2022-08-23T17:18:37.398Z,100492.97
2022-08-23T17:22:39.946Z,100518.66
2022-08-23T17:26:42.685Z,100517.44
2022-08-23T17:30:44.712Z,100525.97
2022-08-23T17:34:47.497Z,100512.41
2022-08-23T17:38:49.503Z,100501.69
2022-08-23T17:42:52.492Z,100501.63
2022-08-23T17:46:55.087Z,100512.88
2022-08-23T17:50:59.779Z,100519.09
2022-08-23T17:55:02.353Z,100534.47
2022-08-23T17:59:06.011Z,100534.00
2022-08-23T18:03:08.136Z,100530.97
2022-08-23T18:07:11.181Z,100496.56
2022-08-23T18:11:13.973Z,100509.28
2022-08-23T18:15:16.945Z,100521.75
2022-08-23T18:19:19.174Z,100521.44
2022-08-23T18:23:21.735Z,100536.81
2022-08-23T18:27:42.400Z,100532.84
2022-08-23T18:31:45.145Z,100528.50
2022-08-23T18:35:47.362Z,100534.69
2022-08-23T18:39:49.777Z,100528.00
2022-08-23T18:43:52.230Z,100527.41
2022-08-23T18:47:54.545Z,100534.41
2022-08-23T18:51:56.919Z,100536.25
2022-08-23T18:55:59.342Z,100538.91
2022-08-23T19:00:02.521Z,100558.25
2022-08-23T19:04:07.181Z,100565.28
2022-08-23T19:08:13.601Z,100555.72
2022-08-23T19:12:17.839Z,100553.72
2022-08-23T19:16:22.067Z,100560.09
2022-08-23T19:20:25.753Z,100555.06
2022-08-23T19:24:28.778Z,100566.16
2022-08-23T19:28:33.005Z,100562.94
2022-08-23T19:32:35.497Z,100555.59
2022-08-23T19:36:47.532Z,100561.63
2022-08-23T19:40:52.435Z,100554.22
2022-08-23T19:44:55.118Z,100543.66
2022-08-23T19:48:57.813Z,100544.16
2022-08-23T19:53:00.232Z,100549.72
2022-08-23T19:57:02.604Z,100553.22
2022-08-23T20:01:05.108Z,100559.72
2022-08-23T20:05:08.500Z,100567.59
2022-08-23T20:09:36.143Z,100570.13
2022-08-23T20:13:38.337Z,100564.94
2022-08-23T20:17:41.294Z,100565.41
2022-08-23T20:21:44.083Z,100572.84
2022-08-23T20:25:46.331Z,100574.19
2022-08-23T20:29:48.507Z,100565.28
2022-08-23T20:33:51.620Z,100570.31
2022-08-23T20:37:53.625Z,100577.00
2022-08-23T20:41:56.326Z,100567.09
2022-08-23T20:45:59.893Z,100567.25
2022-08-23T20:50:02.845Z,100570.56
2022-08-23T20:54:06.445Z,100565.09
2022-08-23T20:58:09.138Z,100559.22
2022-08-23T21:02:11.347Z,100554.22
2022-08-23T21:06:24.047Z,100563.56
2022-08-23T21:10:27.690Z,100562.06
2022-08-23T21:14:30.011Z,100550.69
2022-08-23T21:18:32.205Z,100546.50
2022-08-23T21:22:34.435Z,100543.31
2022-08-23T21:26:37.348Z,100550.63
2022-08-23T21:30:39.757Z,100549.09
2022-08-23T21:34:41.898Z,100540.56
2022-08-23T21:38:45.410Z,100545.75
2022-08-23T21:42:47.895Z,100562.00
2022-08-23T21:46:50.196Z,100582.31
2022-08-23T21:50:52.638Z,100564.84
2022-08-23T21:54:54.985Z,100559.97
2022-08-23T21:59:02.445Z,100572.25
2022-08-23T22:03:05.729Z,100590.09
2022-08-23T22:07:08.424Z,100603.16
2022-08-23T22:11:11.433Z,100616.28
2022-08-23T22:15:14.643Z,100602.88
2022-08-23T22:19:18.746Z,100587.00
2022-08-23T22:23:21.428Z,100580.47
2022-08-23T22:27:23.704Z,100589.22
2022-08-23T22:31:26.053Z,100613.19
2022-08-23T22:35:29.069Z,100625.22
2022-08-23T22:39:31.108Z,100616.53
2022-08-23T22:43:33.498Z,100611.56
2022-08-23T22:47:35.813Z,100604.09
2022-08-23T22:51:38.340Z,100607.22
2022-08-23T22:55:42.167Z,100622.16
2022-08-23T22:59:44.546Z,100623.78
2022-08-23T23:03:46.908Z,100625.38
2022-08-23T23:08:09.990Z,100620.25
2022-08-23T23:12:13.283Z,100615.00
2022-08-23T23:16:20.818Z,100625.97
2022-08-23T23:20:39.946Z,100632.81
2022-08-23T23:24:42.412Z,100648.06
2022-08-23T23:28:44.605Z,100638.78
2022-08-23T23:32:47.229Z,100632.34
2022-08-23T23:36:49.881Z,100616.19
2022-08-23T23:40:52.164Z,100628.28
2022-08-23T23:44:54.264Z,100632.91
2022-08-23T23:48:56.480Z,100635.56
2022-08-23T23:52:58.714Z,100634.44
2022-08-23T23:57:03.443Z,100643.13
